createdAt,value
2022-12-15T00:00:04.936Z,34.15
2022-12-15T00:02:50.576Z,31.02
2022-12-15T00:05:35.983Z,31.27
2022-12-15T00:08:27.741Z,31.08
2022-12-15T00:11:12.958Z,31.77
2022-12-15T00:13:58.565Z,36.00
2022-12-15T00:16:43.676Z,31.33
2022-12-15T00:19:29.018Z,31.20
2022-12-15T00:22:14.210Z,29.80
2022-12-15T00:24:59.504Z,31.23
2022-12-15T00:27:44.950Z,28.47
2022-12-15T00:30:30.260Z,29.50
2022-12-15T00:33:15.593Z,30.20
2022-12-15T00:36:01.279Z,29.63
2022-12-15T00:38:43.536Z,29.33
2022-12-15T00:41:14.581Z,29.05
2022-12-15T00:43:42.746Z,31.97
2022-12-15T00:46:28.147Z,33.22
2022-12-15T00:48:54.834Z,30.70
2022-12-15T00:51:21.370Z,26.07
2022-12-15T00:54:06.711Z,28.17
2022-12-15T00:56:51.866Z,32.55
2022-12-15T00:59:37.330Z,30.35
2022-12-15T01:02:22.721Z,26.05
2022-12-15T01:05:08.645Z,28.88
2022-12-15T01:07:53.834Z,28.65
2022-12-15T01:10:39.159Z,24.63
2022-12-15T01:13:24.443Z,26.75
2022-12-15T01:16:10.005Z,26.27
2022-12-15T01:18:55.436Z,27.63
2022-12-15T01:21:25.028Z,28.42
2022-12-15T01:23:51.937Z,26.02
2022-12-15T01:26:18.431Z,27.65
2022-12-15T01:28:44.987Z,28.10
2022-12-15T01:31:11.742Z,27.45
2022-12-15T01:33:38.637Z,29.52
2022-12-15T01:36:05.327Z,29.77
2022-12-15T01:38:31.962Z,28.45
2022-12-15T01:40:59.990Z,27.38
2022-12-15T01:43:27.880Z,27.05
2022-12-15T01:45:54.747Z,28.25
2022-12-15T01:48:42.608Z,29.00
2022-12-15T01:51:12.538Z,27.65
2022-12-15T01:53:43.403Z,26.58
2022-12-15T01:56:11.254Z,28.25
2022-12-15T01:58:37.801Z,29.05
2022-12-15T02:01:04.474Z,27.65
2022-12-15T02:03:31.991Z,27.10
2022-12-15T02:05:59.942Z,28.73
2022-12-15T02:08:26.451Z,28.45
2022-12-15T02:11:06.837Z,25.83
2022-12-15T02:13:52.240Z,25.80
2022-12-15T02:16:25.084Z,24.45
2022-12-15T02:18:59.592Z,25.63
2022-12-15T02:21:28.255Z,25.88
2022-12-15T02:24:03.141Z,27.00
2022-12-15T02:26:41.831Z,27.38
2022-12-15T02:29:26.591Z,24.77
2022-12-15T02:31:54.973Z,23.80
2022-12-15T02:34:32.706Z,27.70
2022-12-15T02:36:59.875Z,28.27
2022-12-15T02:39:26.421Z,29.13
2022-12-15T02:41:53.149Z,27.05
2022-12-15T02:44:38.911Z,26.40
2022-12-15T02:47:15.302Z,28.30
2022-12-15T02:49:55.345Z,23.95
2022-12-15T02:52:51.320Z,24.83
2022-12-15T02:55:20.553Z,25.20
2022-12-15T02:58:03.458Z,26.60
2022-12-15T03:00:30.429Z,24.65
2022-12-15T03:02:57.041Z,23.70
2022-12-15T03:05:24.279Z,24.10
2022-12-15T03:07:51.228Z,23.58
2022-12-15T03:10:17.771Z,23.83
2022-12-15T03:12:45.182Z,24.10
2022-12-15T03:15:11.812Z,24.40
2022-12-15T03:17:38.408Z,23.10
2022-12-15T03:20:05.286Z,25.13
2022-12-15T03:22:31.881Z,23.80
2022-12-15T03:24:58.539Z,23.88
2022-12-15T03:30:11.178Z,33.53
2022-12-15T03:35:23.751Z,24.85
2022-12-15T03:37:51.023Z,24.63
2022-12-15T03:40:17.608Z,26.63
2022-12-15T03:42:50.489Z,27.20
2022-12-15T03:45:26.552Z,26.17
2022-12-15T03:47:53.098Z,29.77
2022-12-15T03:50:20.600Z,29.30
2022-12-15T03:52:55.530Z,28.70
2022-12-15T03:55:22.220Z,34.08
2022-12-15T03:57:49.294Z,39.58
2022-12-15T04:00:16.094Z,36.38
2022-12-15T04:02:43.087Z,29.23
2022-12-15T04:05:13.732Z,26.48
2022-12-15T04:07:40.241Z,24.15
2022-12-15T04:10:07.000Z,26.92
2022-12-15T04:12:33.581Z,26.40
2022-12-15T04:15:00.093Z,23.88
2022-12-15T04:17:26.660Z,24.13
2022-12-15T04:20:11.334Z,25.70
2022-12-15T04:22:38.632Z,25.88
2022-12-15T04:25:24.762Z,26.20
2022-12-15T04:28:10.013Z,24.67
2022-12-15T04:30:55.329Z,25.15
2022-12-15T04:33:40.935Z,27.27
2022-12-15T04:36:27.546Z,26.80
2022-12-15T04:39:12.930Z,25.08
2022-12-15T04:41:58.410Z,21.13
2022-12-15T04:44:44.048Z,23.83
2022-12-15T04:47:35.465Z,22.55
2022-12-15T04:50:20.864Z,22.65
2022-12-15T04:53:06.231Z,22.42
2022-12-15T04:55:54.793Z,27.25
2022-12-15T04:58:40.178Z,27.30
2022-12-15T05:01:25.750Z,26.15
2022-12-15T05:04:10.974Z,27.08
2022-12-15T05:06:57.457Z,25.30
2022-12-15T05:09:42.922Z,31.58
2022-12-15T05:12:28.259Z,27.83
2022-12-15T05:15:14.647Z,30.48
2022-12-15T05:17:59.842Z,32.45
2022-12-15T05:23:48.716Z,25.35
2022-12-15T05:26:34.005Z,24.52
2022-12-15T05:29:19.246Z,24.08
2022-12-15T05:31:51.915Z,28.15
2022-12-15T05:34:22.100Z,26.92
2022-12-15T05:36:49.194Z,28.38
2022-12-15T05:42:00.335Z,21.95
2022-12-15T05:44:26.898Z,24.25
2022-12-15T05:46:54.230Z,22.55
2022-12-15T05:49:21.112Z,24.55
2022-12-15T05:51:47.882Z,22.00
2022-12-15T05:54:16.664Z,20.98
2022-12-15T05:56:43.260Z,19.70
2022-12-15T05:59:10.051Z,20.45
2022-12-15T06:01:36.709Z,22.00
2022-12-15T06:04:03.736Z,23.85
2022-12-15T06:06:30.513Z,23.50
2022-12-15T06:08:57.008Z,24.23
2022-12-15T06:11:24.611Z,25.77
2022-12-15T06:13:51.161Z,22.50
2022-12-15T06:16:18.616Z,20.25
2022-12-15T06:18:49.931Z,31.17
2022-12-15T06:21:18.076Z,27.27
2022-12-15T06:23:44.703Z,25.20
2022-12-15T06:26:21.669Z,23.55
2022-12-15T06:28:48.557Z,20.20
2022-12-15T06:31:15.234Z,20.95
2022-12-15T06:33:41.963Z,24.15
2022-12-15T06:36:09.583Z,25.88
2022-12-15T06:38:36.176Z,23.52
2022-12-15T06:41:03.350Z,22.15
2022-12-15T06:43:30.948Z,25.23
2022-12-15T06:45:57.976Z,33.63
2022-12-15T06:48:24.663Z,33.05
2022-12-15T06:50:51.861Z,31.92
2022-12-15T06:53:18.960Z,31.08
2022-12-15T06:58:30.171Z,31.00
2022-12-15T07:03:41.319Z,28.98
2022-12-15T07:06:09.771Z,30.92
2022-12-15T07:08:41.305Z,30.90
2022-12-15T07:11:08.959Z,35.95
2022-12-15T07:13:35.472Z,29.60
2022-12-15T07:16:02.504Z,27.67
2022-12-15T07:18:29.530Z,25.83
2022-12-15T07:20:56.538Z,24.05
2022-12-15T07:23:39.945Z,27.33
2022-12-15T07:26:11.665Z,25.17
2022-12-15T07:28:38.478Z,26.40
2022-12-15T07:31:08.599Z,29.55
2022-12-15T07:33:35.590Z,28.48
2022-12-15T07:36:02.520Z,30.58
2022-12-15T07:38:29.325Z,25.98
2022-12-15T07:40:55.994Z,26.23
2022-12-15T07:43:22.907Z,27.40
2022-12-15T07:45:53.090Z,26.95
2022-12-15T07:48:19.939Z,27.02
2022-12-15T07:50:48.385Z,28.95
2022-12-15T07:53:17.619Z,27.55
2022-12-15T07:56:06.115Z,30.83
2022-12-15T07:58:30.657Z,27.50
2022-12-15T08:01:00.972Z,28.05
2022-12-15T08:03:28.049Z,28.90
2022-12-15T08:05:57.695Z,32.83
2022-12-15T08:08:29.042Z,29.13
2022-12-15T08:10:56.312Z,32.53
2022-12-15T08:14:00.342Z,30.25
2022-12-15T08:16:10.403Z,33.30
2022-12-15T08:18:36.972Z,33.88
2022-12-15T08:21:03.897Z,35.55
2022-12-15T08:23:31.134Z,38.85
2022-12-15T08:26:05.896Z,38.10
2022-12-15T08:31:17.623Z,51.30
2022-12-15T08:33:44.859Z,46.57
2022-12-15T08:36:11.856Z,49.30
2022-12-15T08:38:41.542Z,53.83
2022-12-15T08:43:53.386Z,58.47
2022-12-15T08:46:21.238Z,56.63
2022-12-15T08:48:49.997Z,62.27
2022-12-15T08:51:16.641Z,60.67
2022-12-15T08:56:27.561Z,54.03
2022-12-15T08:58:58.092Z,55.73
2022-12-15T09:01:28.701Z,54.23
2022-12-15T09:03:55.874Z,50.50
2022-12-15T09:06:23.366Z,53.23
2022-12-15T09:08:50.381Z,49.70
2022-12-15T09:11:17.511Z,49.93
2022-12-15T09:13:44.612Z,49.83
2022-12-15T09:16:14.828Z,50.73
2022-12-15T09:18:45.460Z,47.57
2022-12-15T09:21:12.095Z,49.77
2022-12-15T09:23:38.719Z,48.43
2022-12-15T09:26:05.276Z,51.63
2022-12-15T09:28:32.227Z,49.90
2022-12-15T09:31:05.432Z,48.03
2022-12-15T09:33:32.528Z,43.03
2022-12-15T09:35:59.296Z,41.13
2022-12-15T09:38:26.030Z,39.27
2022-12-15T09:40:52.561Z,39.00
2022-12-15T09:43:34.354Z,38.17
2022-12-15T09:46:03.162Z,31.67
2022-12-15T09:48:32.426Z,35.30
2022-12-15T09:50:58.992Z,33.43
2022-12-15T09:53:53.554Z,29.80
2022-12-15T09:56:22.464Z,29.37
2022-12-15T09:58:50.727Z,27.30
2022-12-15T10:01:17.569Z,29.07
2022-12-15T10:03:44.517Z,28.13
2022-12-15T10:06:16.139Z,31.80
2022-12-15T10:08:45.718Z,33.27
2022-12-15T10:11:12.312Z,33.13
2022-12-15T10:13:41.092Z,34.30
2022-12-15T10:16:14.061Z,34.33
2022-12-15T10:18:41.887Z,35.67
2022-12-15T10:21:09.616Z,34.07
2022-12-15T10:23:36.581Z,37.07
2022-12-15T10:26:20.580Z,36.57
2022-12-15T10:28:51.358Z,34.80
2022-12-15T10:31:37.139Z,29.33
2022-12-15T10:34:24.053Z,33.73
2022-12-15T10:36:51.249Z,29.07
2022-12-15T10:39:17.904Z,24.73
2022-12-15T10:41:44.439Z,26.23
2022-12-15T10:44:28.592Z,21.53
2022-12-15T10:46:58.703Z,18.60
2022-12-15T10:49:25.310Z,25.40
2022-12-15T10:51:54.455Z,27.00
2022-12-15T10:54:22.168Z,23.37
2022-12-15T10:56:52.841Z,27.83
2022-12-15T10:59:22.394Z,21.90
2022-12-15T11:01:49.393Z,28.50
2022-12-15T11:07:14.959Z,27.20
2022-12-15T11:09:41.519Z,26.33
2022-12-15T11:12:39.670Z,25.77
2022-12-15T11:18:12.873Z,26.43
2022-12-15T11:20:44.147Z,27.63
2022-12-15T11:23:18.760Z,24.40
2022-12-15T11:25:46.177Z,27.73
2022-12-15T11:28:18.748Z,27.83
2022-12-15T11:30:46.316Z,28.23
2022-12-15T11:33:12.956Z,28.63
2022-12-15T11:35:48.820Z,27.23
2022-12-15T11:38:15.540Z,27.73
2022-12-15T11:40:42.510Z,19.57
2022-12-15T11:43:19.045Z,29.80
2022-12-15T11:45:52.391Z,26.83
2022-12-15T11:48:20.855Z,27.50
2022-12-15T11:50:59.083Z,21.03
2022-12-15T11:54:01.224Z,27.87
2022-12-15T11:56:29.966Z,25.10
2022-12-15T11:59:09.094Z,22.50
2022-12-15T12:01:39.257Z,24.50
2022-12-15T12:04:21.149Z,24.37
2022-12-15T12:07:21.376Z,24.63
2022-12-15T12:09:54.216Z,23.00
2022-12-15T12:12:36.412Z,20.90
2022-12-15T12:15:21.546Z,18.00
2022-12-15T12:17:52.347Z,13.80
2022-12-15T12:20:19.497Z,21.27
2022-12-15T12:23:05.829Z,24.53
2022-12-15T12:25:42.454Z,24.23
2022-12-15T12:28:20.920Z,22.17
2022-12-15T12:30:48.694Z,25.90
2022-12-15T12:33:20.390Z,23.93
2022-12-15T12:35:48.871Z,21.17
2022-12-15T12:38:15.438Z,19.83
2022-12-15T12:41:01.054Z,21.93
2022-12-15T12:43:35.268Z,21.73
2022-12-15T12:46:03.999Z,23.63
2022-12-15T12:48:35.475Z,16.77
2022-12-15T12:51:20.715Z,9.07
2022-12-15T12:56:41.779Z,17.40
2022-12-15T12:59:27.119Z,19.20
2022-12-15T13:01:55.083Z,19.70
2022-12-15T13:04:31.003Z,17.47
2022-12-15T13:06:59.161Z,20.83
2022-12-15T13:09:39.069Z,10.13
2022-12-15T13:14:57.260Z,19.23
2022-12-15T13:17:31.101Z,23.83
2022-12-15T13:20:00.903Z,16.63
2022-12-15T13:22:34.049Z,25.10
2022-12-15T13:25:00.673Z,21.47
2022-12-15T13:27:36.609Z,26.87
2022-12-15T13:30:09.839Z,17.17
2022-12-15T13:32:40.113Z,23.93
2022-12-15T13:35:12.867Z,18.27
2022-12-15T13:37:50.645Z,24.30
2022-12-15T13:40:23.774Z,24.37
2022-12-15T13:43:00.121Z,13.43
2022-12-15T13:45:51.214Z,23.50
2022-12-15T13:48:26.188Z,15.10
2022-12-15T13:50:56.749Z,18.13
2022-12-15T13:53:23.378Z,19.50
2022-12-15T13:55:55.130Z,21.07
2022-12-15T13:58:21.988Z,21.70
2022-12-15T14:00:50.000Z,21.20
2022-12-15T14:03:18.074Z,22.87
2022-12-15T14:05:48.854Z,22.50
2022-12-15T14:08:21.691Z,16.97
2022-12-15T14:10:54.968Z,21.30
2022-12-15T14:13:23.240Z,22.70
2022-12-15T14:16:00.111Z,24.23
2022-12-15T14:18:28.045Z,25.30
2022-12-15T14:20:55.606Z,23.67
2022-12-15T14:23:23.563Z,31.40
2022-12-15T14:25:53.769Z,25.70
2022-12-15T14:28:30.544Z,27.70
2022-12-15T14:31:01.373Z,19.97
2022-12-15T14:33:29.779Z,27.27
2022-12-15T14:35:56.852Z,27.53
2022-12-15T14:38:28.268Z,12.60
2022-12-15T14:40:57.266Z,30.23
2022-12-15T14:43:25.474Z,27.20
2022-12-15T14:45:54.247Z,29.43
2022-12-15T14:48:40.969Z,21.10
2022-12-15T14:51:08.703Z,13.87
2022-12-15T14:53:36.654Z,18.27
2022-12-15T14:56:22.582Z,26.40
2022-12-15T14:59:17.375Z,15.07
2022-12-15T15:01:57.900Z,22.67
2022-12-15T15:03:05.151Z,20.20
2022-12-15T15:03:12.027Z,24.80
2022-12-15T15:04:32.998Z,26.60
2022-12-15T15:07:00.575Z,29.80
2022-12-15T15:09:31.033Z,32.43
2022-12-15T15:12:02.872Z,37.13
2022-12-15T15:14:38.768Z,38.00
2022-12-15T15:17:07.368Z,33.60
2022-12-15T15:19:39.109Z,32.70
2022-12-15T15:22:24.806Z,32.50
2022-12-15T15:24:51.760Z,31.50
2022-12-15T15:27:24.904Z,30.37
2022-12-15T15:29:51.918Z,23.20
2022-12-15T15:32:22.716Z,20.67
2022-12-15T15:34:51.426Z,17.83
2022-12-15T15:37:22.175Z,25.47
2022-12-15T15:39:50.559Z,24.20
2022-12-15T15:42:17.660Z,26.33
2022-12-15T15:44:48.505Z,30.97
2022-12-15T15:47:21.403Z,32.77
2022-12-15T15:49:49.758Z,32.73
2022-12-15T15:52:16.659Z,34.37
2022-12-15T15:54:43.372Z,35.93
2022-12-15T15:57:16.977Z,36.93
2022-12-15T15:59:44.430Z,30.77
2022-12-15T16:02:11.844Z,33.53
2022-12-15T16:04:42.189Z,35.83
2022-12-15T16:07:24.739Z,35.40
2022-12-15T16:09:51.570Z,34.90
2022-12-15T16:12:25.503Z,36.70
2022-12-15T16:14:52.223Z,36.53
2022-12-15T16:17:18.996Z,34.93
2022-12-15T16:19:46.143Z,39.07
2022-12-15T16:22:16.118Z,39.17
2022-12-15T16:24:44.048Z,20.13
2022-12-15T16:27:11.306Z,23.63
2022-12-15T16:29:37.955Z,35.73
2022-12-15T16:32:05.223Z,39.63
2022-12-15T16:34:32.307Z,32.87
2022-12-15T16:36:58.977Z,38.73
2022-12-15T16:39:29.222Z,35.50
2022-12-15T16:41:56.507Z,19.77
2022-12-15T16:44:23.599Z,32.20
2022-12-15T16:46:50.385Z,31.57
2022-12-15T16:49:17.036Z,29.30
2022-12-15T16:51:44.572Z,39.63
2022-12-15T16:54:15.706Z,28.43
2022-12-15T16:56:42.748Z,30.40
2022-12-15T16:59:32.387Z,34.53
2022-12-15T17:02:00.703Z,33.43
2022-12-15T17:04:27.545Z,37.33
2022-12-15T17:06:55.296Z,16.73
2022-12-15T17:09:22.879Z,20.30
2022-12-15T17:11:49.676Z,23.93
2022-12-15T17:14:16.879Z,24.23
2022-12-15T17:16:44.328Z,36.53
2022-12-15T17:19:13.926Z,32.30
2022-12-15T17:21:54.070Z,28.57
2022-12-15T17:24:21.205Z,13.03
2022-12-15T17:26:48.249Z,15.43
2022-12-15T17:29:14.970Z,28.20
2022-12-15T17:31:41.786Z,19.57
2022-12-15T17:34:29.087Z,18.30
2022-12-15T17:36:59.662Z,19.43
2022-12-15T17:39:27.574Z,22.20
2022-12-15T17:42:02.832Z,21.10
2022-12-15T17:44:37.814Z,17.50
2022-12-15T17:47:08.842Z,23.27
2022-12-15T17:49:38.735Z,19.03
2022-12-15T17:52:20.997Z,21.97
2022-12-15T17:54:47.649Z,22.13
2022-12-15T17:57:14.173Z,27.30
2022-12-15T17:59:41.332Z,21.37
2022-12-15T18:02:10.648Z,18.50
2022-12-15T18:04:37.346Z,31.93
2022-12-15T18:07:04.343Z,29.07
2022-12-15T18:09:31.136Z,13.37
2022-12-15T18:11:58.169Z,19.60
2022-12-15T18:14:25.312Z,14.17
2022-12-15T18:16:52.092Z,16.97
2022-12-15T18:19:20.284Z,26.43
2022-12-15T18:21:47.187Z,28.67
2022-12-15T18:24:14.620Z,19.43
2022-12-15T18:26:41.346Z,21.40
2022-12-15T18:29:17.841Z,25.80
2022-12-15T18:31:48.561Z,27.00
2022-12-15T18:34:19.455Z,25.47
2022-12-15T18:36:46.333Z,21.67
2022-12-15T18:39:19.896Z,15.33
2022-12-15T18:41:46.533Z,17.97
2022-12-15T18:44:23.126Z,17.67
2022-12-15T18:46:50.313Z,15.97
2022-12-15T18:49:17.443Z,17.80
2022-12-15T18:51:46.620Z,26.27
2022-12-15T18:54:15.209Z,18.80
2022-12-15T18:56:42.307Z,12.73
2022-12-15T18:59:15.842Z,18.03
2022-12-15T19:01:43.330Z,26.87
2022-12-15T19:04:09.993Z,17.17
2022-12-15T19:06:36.800Z,26.77
2022-12-15T19:09:04.638Z,18.70
2022-12-15T19:11:31.419Z,18.87
2022-12-15T19:13:59.590Z,22.17
2022-12-15T19:16:26.661Z,17.37
2022-12-15T19:19:17.225Z,20.00
2022-12-15T19:22:00.532Z,18.27
2022-12-15T19:24:46.719Z,22.43
2022-12-15T19:27:14.095Z,14.17
2022-12-15T19:29:40.864Z,31.80
2022-12-15T19:32:07.687Z,13.77
2022-12-15T19:34:34.624Z,20.83
2022-12-15T19:37:02.999Z,25.93
2022-12-15T19:39:29.727Z,17.07
2022-12-15T19:41:56.305Z,37.03
2022-12-15T19:44:23.118Z,33.43
2022-12-15T19:46:50.113Z,18.47
2022-12-15T19:49:19.757Z,23.03
2022-12-15T19:51:46.901Z,15.87
2022-12-15T19:54:17.359Z,24.90
2022-12-15T19:56:44.601Z,24.63
2022-12-15T19:59:18.676Z,21.70
2022-12-15T20:01:48.245Z,21.77
2022-12-15T20:04:17.344Z,18.27
2022-12-15T20:06:46.843Z,21.83
2022-12-15T20:09:18.428Z,28.23
2022-12-15T20:11:45.229Z,20.87
2022-12-15T20:14:12.936Z,17.33
2022-12-15T20:16:40.151Z,25.57
2022-12-15T20:19:06.846Z,25.23
2022-12-15T20:21:34.936Z,32.83
2022-12-15T20:24:11.472Z,34.17
2022-12-15T20:26:38.531Z,29.77
2022-12-15T20:29:06.502Z,31.10
2022-12-15T20:31:33.249Z,22.10
2022-12-15T20:34:01.980Z,31.00
2022-12-15T20:36:30.009Z,13.53
2022-12-15T20:38:56.881Z,22.33
2022-12-15T20:44:10.499Z,29.57
2022-12-15T20:46:38.234Z,28.33
2022-12-15T20:49:06.297Z,26.63
2022-12-15T20:51:32.983Z,20.73
2022-12-15T20:54:02.411Z,17.40
2022-12-15T20:56:29.280Z,17.70
2022-12-15T20:58:57.685Z,32.00
2022-12-15T21:01:26.713Z,29.90
2022-12-15T21:03:54.350Z,28.10
2022-12-15T21:06:21.250Z,15.20
2022-12-15T21:11:37.256Z,20.73
2022-12-15T21:16:48.581Z,28.97
2022-12-15T21:22:00.085Z,25.57
2022-12-15T21:24:27.640Z,24.47
2022-12-15T21:26:55.049Z,28.33
2022-12-15T21:29:22.431Z,25.27
2022-12-15T21:31:49.115Z,14.13
2022-12-15T21:34:16.014Z,26.20
2022-12-15T21:36:43.628Z,27.47
2022-12-15T21:39:12.220Z,29.10
2022-12-15T21:41:39.963Z,28.03
2022-12-15T21:44:10.768Z,25.63
2022-12-15T21:49:21.720Z,27.77
2022-12-15T21:51:52.078Z,27.13
2022-12-15T21:54:19.789Z,26.40
2022-12-15T21:56:47.664Z,22.47
2022-12-15T21:59:15.134Z,19.77
2022-12-15T22:01:41.983Z,25.70
2022-12-15T22:04:30.794Z,26.03
2022-12-15T22:06:58.346Z,28.07
2022-12-15T22:09:25.033Z,26.17
2022-12-15T22:11:53.995Z,27.30
2022-12-15T22:14:30.767Z,29.97
2022-12-15T22:16:58.357Z,20.57
2022-12-15T22:19:25.193Z,24.00
2022-12-15T22:21:52.247Z,14.47
2022-12-15T22:24:19.240Z,17.80
2022-12-15T22:26:46.621Z,18.97
2022-12-15T22:29:17.889Z,14.30
2022-12-15T22:31:44.621Z,15.73
2022-12-15T22:34:15.468Z,13.30
2022-12-15T22:36:43.937Z,16.40
2022-12-15T22:39:11.516Z,15.00
2022-12-15T22:41:42.221Z,25.47
2022-12-15T22:44:12.304Z,19.57
2022-12-15T22:46:39.042Z,24.53
2022-12-15T22:49:05.725Z,23.37
2022-12-15T22:51:32.398Z,12.63
2022-12-15T22:53:58.955Z,23.83
2022-12-15T22:56:30.727Z,19.23
2022-12-15T22:58:59.085Z,24.93
2022-12-15T23:01:25.908Z,26.07
2022-12-15T23:03:52.903Z,26.60
2022-12-15T23:06:19.619Z,19.07
2022-12-15T23:08:47.535Z,16.57
2022-12-15T23:11:34.436Z,22.73
2022-12-15T23:14:01.211Z,18.40
2022-12-15T23:16:27.951Z,25.97
2022-12-15T23:18:55.085Z,24.23
2022-12-15T23:21:21.947Z,18.40
2022-12-15T23:23:48.677Z,18.70
2022-12-15T23:28:59.945Z,22.10
2022-12-15T23:34:11.060Z,26.63
2022-12-15T23:39:22.635Z,22.67
2022-12-15T23:41:49.276Z,14.27
2022-12-15T23:44:16.176Z,18.80
2022-12-15T23:46:43.102Z,18.43
2022-12-15T23:49:10.334Z,19.87
2022-12-15T23:51:37.037Z,15.00
2022-12-15T23:54:03.862Z,21.50
2022-12-15T23:56:30.632Z,23.67
2022-12-15T23:58:58.027Z,22.63
